sensor_id;sensor_type;location;lat;lon;timestamp;pressure;altitude;pressure_sealevel;temperature;humidity
69766;BME280;57039;48.014;21.384;2023-01-16T00:00:45;100139.31;;;3.66;100.00
69766;BME280;57039;48.014;21.384;2023-01-16T00:01:48;100138.47;;;3.66;100.00
69766;BME280;57039;48.014;21.384;2023-01-16T00:02:51;100134.22;;;3.63;100.00
69766;BME280;57039;48.014;21.384;2023-01-16T00:03:54;100123.09;;;3.60;100.00
69766;BME280;57039;48.014;21.384;2023-01-16T00:04:57;100128.22;;;3.61;100.00
69766;BME280;57039;48.014;21.384;2023-01-16T00:06:00;100126.44;;;3.63;100.00
69766;BME280;57039;48.014;21.384;2023-01-16T00:07:03;100128.19;;;3.63;100.00
69766;BME280;57039;48.014;21.384;2023-01-16T00:08:06;100130.81;;;3.61;100.00
69766;BME280;57039;48.014;21.384;2023-01-16T00:09:09;100135.91;;;3.64;100.00
69766;BME280;57039;48.014;21.384;2023-01-16T00:10:12;100134.22;;;3.63;100.00
69766;BME280;57039;48.014;21.384;2023-01-16T00:11:15;100134.22;;;3.63;100.00
69766;BME280;57039;48.014;21.384;2023-01-16T00:12:18;100132.37;;;3.67;100.00
69766;BME280;57039;48.014;21.384;2023-01-16T00:13:21;100128.00;;;3.67;100.00
69766;BME280;57039;48.014;21.384;2023-01-16T00:14:24;100136.78;;;3.65;100.00
69766;BME280;57039;48.014;21.384;2023-01-16T00:15:26;100133.41;;;3.61;100.00
69766;BME280;57039;48.014;21.384;2023-01-16T00:16:29;100131.66;;;3.62;100.00
69766;BME280;57039;48.014;21.384;2023-01-16T00:17:32;100132.47;;;3.64;100.00
69766;BME280;57039;48.014;21.384;2023-01-16T00:18:35;100124.69;;;3.64;100.00
69766;BME280;57039;48.014;21.384;2023-01-16T00:19:38;100124.84;;;3.59;100.00
69766;BME280;57039;48.014;21.384;2023-01-16T00:20:41;100121.28;;;3.62;100.00
69766;BME280;57039;48.014;21.384;2023-01-16T00:21:43;100119.59;;;3.61;100.00
69766;BME280;57039;48.014;21.384;2023-01-16T00:22:50;100120.44;;;3.61;100.00
69766;BME280;57039;48.014;21.384;2023-01-16T00:23:54;100117.91;;;3.60;100.00
69766;BME280;57039;48.014;21.384;2023-01-16T00:24:58;100122.19;;;3.61;100.00
69766;BME280;57039;48.014;21.384;2023-01-16T00:26:04;100121.25;;;3.63;100.00
69766;BME280;57039;48.014;21.384;2023-01-16T00:27:07;100120.25;;;3.67;100.00
69766;BME280;57039;48.014;21.384;2023-01-16T00:28:12;100115.25;;;3.61;100.00
69766;BME280;57039;48.014;21.384;2023-01-16T00:29:16;100122.06;;;3.65;100.00
69766;BME280;57039;48.014;21.384;2023-01-16T00:30:19;100123.00;;;3.63;100.00
69766;BME280;57039;48.014;21.384;2023-01-16T00:31:22;100115.16;;;3.64;100.00
69766;BME280;57039;48.014;21.384;2023-01-16T00:32:28;100116.91;;;3.64;100.00
69766;BME280;57039;48.014;21.384;2023-01-16T00:33:34;100112.63;;;3.63;100.00
69766;BME280;57039;48.014;21.384;2023-01-16T00:34:37;100106.50;;;3.65;100.00
69766;BME280;57039;48.014;21.384;2023-01-16T00:35:40;100106.50;;;3.65;100.00
69766;BME280;57039;48.014;21.384;2023-01-16T00:36:43;100111.00;;;3.59;100.00
69766;BME280;57039;48.014;21.384;2023-01-16T00:37:46;100107.44;;;3.63;100.00
69766;BME280;57039;48.014;21.384;2023-01-16T00:38:49;100109.81;;;3.69;100.00
69766;BME280;57039;48.014;21.384;2023-01-16T00:39:52;100106.50;;;3.65;100.00
69766;BME280;57039;48.014;21.384;2023-01-16T00:40:55;100101.50;;;3.59;100.00
69766;BME280;57039;48.014;21.384;2023-01-16T00:41:59;100107.47;;;3.61;100.00
69766;BME280;57039;48.014;21.384;2023-01-16T00:43:01;100108.37;;;3.60;100.00
69766;BME280;57039;48.014;21.384;2023-01-16T00:44:04;100113.44;;;3.65;100.00
69766;BME280;57039;48.014;21.384;2023-01-16T00:45:08;100111.72;;;3.64;100.00
69766;BME280;57039;48.014;21.384;2023-01-16T00:46:11;100107.16;;;3.71;100.00
69766;BME280;57039;48.014;21.384;2023-01-16T00:47:13;100110.84;;;3.65;100.00
69766;BME280;57039;48.014;21.384;2023-01-16T00:48:16;100115.00;;;3.69;100.00
69766;BME280;57039;48.014;21.384;2023-01-16T00:49:20;100114.16;;;3.69;100.00
69766;BME280;57039;48.014;21.384;2023-01-16T00:50:22;100112.31;;;3.72;100.00
69766;BME280;57039;48.014;21.384;2023-01-16T00:51:25;100110.56;;;3.73;100.00
69766;BME280;57039;48.014;21.384;2023-01-16T00:52:28;100107.84;;;3.77;100.00
69766;BME280;57039;48.014;21.384;2023-01-16T00:53:31;100099.16;;;3.77;100.00
69766;BME280;57039;48.014;21.384;2023-01-16T00:54:34;100111.37;;;3.75;100.00
69766;BME280;57039;48.014;21.384;2023-01-16T00:55:37;100118.13;;;3.79;100.00
69766;BME280;57039;48.014;21.384;2023-01-16T00:56:40;100117.53;;;3.71;100.00
69766;BME280;57039;48.014;21.384;2023-01-16T00:57:42;100115.72;;;3.74;100.00
69766;BME280;57039;48.014;21.384;2023-01-16T00:58:45;100118.13;;;3.79;100.00
69766;BME280;57039;48.014;21.384;2023-01-16T00:59:48;100120.91;;;3.74;100.00
69766;BME280;57039;48.014;21.384;2023-01-16T01:00:51;100126.19;;;3.71;100.00
69766;BME280;57039;48.014;21.384;2023-01-16T01:01:54;100123.69;;;3.68;100.00
69766;BME280;57039;48.014;21.384;2023-01-16T01:02:57;100116.91;;;3.64;100.00
69766;BME280;57039;48.014;21.384;2023-01-16T01:04:00;100117.81;;;3.63;100.00
69766;BME280;57039;48.014;21.384;2023-01-16T01:05:04;100118.69;;;3.62;100.00
69766;BME280;57039;48.014;21.384;2023-01-16T01:06:09;100122.91;;;3.66;100.00
69766;BME280;57039;48.014;21.384;2023-01-16T01:07:13;100132.37;;;3.67;100.00
69766;BME280;57039;48.014;21.384;2023-01-16T01:08:16;100125.63;;;3.61;100.00
69766;BME280;57039;48.014;21.384;2023-01-16T01:09:20;100127.25;;;3.65;100.00
69766;BME280;57039;48.014;21.384;2023-01-16T01:10:23;100125.50;;;3.66;100.00
69766;BME280;57039;48.014;21.384;2023-01-16T01:11:25;100119.41;;;3.67;100.00
69766;BME280;57039;48.014;21.384;2023-01-16T01:12:28;100117.84;;;3.61;100.00
69766;BME280;57039;48.014;21.384;2023-01-16T01:13:31;100117.00;;;3.61;100.00
69766;BME280;57039;48.014;21.384;2023-01-16T01:14:33;100114.41;;;3.61;100.00
69766;BME280;57039;48.014;21.384;2023-01-16T01:15:36;100115.16;;;3.64;100.00
69766;BME280;57039;48.014;21.384;2023-01-16T01:16:39;100117.72;;;3.66;100.00
69766;BME280;57039;48.014;21.384;2023-01-16T01:17:42;100106.38;;;3.69;100.00
69766;BME280;57039;48.014;21.384;2023-01-16T01:18:45;100101.13;;;3.70;100.00
69766;BME280;57039;48.014;21.384;2023-01-16T01:20:06;100105.53;;;3.68;100.00
69766;BME280;57039;48.014;21.384;2023-01-16T01:21:09;100100.28;;;3.70;100.00
69766;BME280;57039;48.014;21.384;2023-01-16T01:22:13;100102.94;;;3.68;100.00
69766;BME280;57039;48.014;21.384;2023-01-16T01:23:18;100097.81;;;3.66;100.00
69766;BME280;57039;48.014;21.384;2023-01-16T01:24:21;100102.03;;;3.69;100.00
69766;BME280;57039;48.014;21.384;2023-01-16T01:25:24;100104.53;;;3.72;100.00
69766;BME280;57039;48.014;21.384;2023-01-16T01:26:27;100091.50;;;3.74;100.00
69766;BME280;57039;48.014;21.384;2023-01-16T01:27:30;100097.69;;;3.70;100.00
69766;BME280;57039;48.014;21.384;2023-01-16T01:28:33;100100.28;;;3.70;100.00
69766;BME280;57039;48.014;21.384;2023-01-16T01:29:36;100100.16;;;3.74;100.00
69766;BME280;57039;48.014;21.384;2023-01-16T01:30:39;100104.44;;;3.75;100.00
69766;BME280;57039;48.014;21.384;2023-01-16T01:31:42;100100.25;;;3.71;100.00
69766;BME280;57039;48.014;21.384;2023-01-16T01:32:45;100098.53;;;3.70;100.00
69766;BME280;57039;48.014;21.384;2023-01-16T01:33:47;100090.63;;;3.75;100.00
69766;BME280;57039;48.014;21.384;2023-01-16T01:34:50;100091.37;;;3.77;100.00
69766;BME280;57039;48.014;21.384;2023-01-16T01:35:53;100083.03;;;3.69;100.00
69766;BME280;57039;48.014;21.384;2023-01-16T01:36:56;100082.97;;;3.70;100.00
69766;BME280;57039;48.014;21.384;2023-01-16T01:37:59;100083.72;;;3.74;100.00
69766;BME280;57039;48.014;21.384;2023-01-16T01:39:02;100082.13;;;3.70;100.00
69766;BME280;57039;48.014;21.384;2023-01-16T01:40:05;100076.81;;;3.74;100.00
69766;BME280;57039;48.014;21.384;2023-01-16T01:41:12;100074.31;;;3.71;100.00
69766;BME280;57039;48.014;21.384;2023-01-16T01:42:16;100070.91;;;3.69;100.00
69766;BME280;57039;48.014;21.384;2023-01-16T01:43:46;100065.62;;;3.72;100.00
69766;BME280;57039;48.014;21.384;2023-01-16T01:45:04;100062.97;;;3.74;100.00
69766;BME280;57039;48.014;21.384;2023-01-16T01:46:27;100059.41;;;3.76;100.00
69766;BME280;57039;48.014;21.384;2023-01-16T01:47:34;100058.75;;;3.71;100.00
69766;BME280;57039;48.014;21.384;2023-01-16T01:48:40;100054.34;;;3.73;100.00
69766;BME280;57039;48.014;21.384;2023-01-16T01:49:44;100049.31;;;3.69;100.00
69766;BME280;57039;48.014;21.384;2023-01-16T01:50:54;100050.91;;;3.73;100.00
69766;BME280;57039;48.014;21.384;2023-01-16T01:52:01;100039.72;;;3.71;100.00
69766;BME280;57039;48.014;21.384;2023-01-16T01:53:11;100036.91;;;3.77;100.00
69766;BME280;57039;48.014;21.384;2023-01-16T01:54:20;100029.03;;;3.80;100.00
69766;BME280;57039;48.014;21.384;2023-01-16T01:55:24;100030.09;;;3.74;100.00
69766;BME280;57039;48.014;21.384;2023-01-16T01:57:45;100030.78;;;3.79;100.00
69766;BME280;57039;48.014;21.384;2023-01-16T01:58:55;100036.81;;;3.80;100.00
69766;BME280;57039;48.014;21.384;2023-01-16T02:00:05;100041.03;;;3.82;100.00
69766;BME280;57039;48.014;21.384;2023-01-16T02:01:12;100055.66;;;3.85;100.00
69766;BME280;57039;48.014;21.384;2023-01-16T02:02:20;100051.50;;;3.81;100.00
69766;BME280;57039;48.014;21.384;2023-01-16T02:03:40;100058.44;;;3.80;100.00
69766;BME280;57039;48.014;21.384;2023-01-16T02:04:44;100049.63;;;3.84;100.00
69766;BME280;57039;48.014;21.384;2023-01-16T02:05:49;100048.19;;;3.76;100.00
69766;BME280;57039;48.014;21.384;2023-01-16T02:06:58;100047.41;;;3.74;100.00
69766;BME280;57039;48.014;21.384;2023-01-16T02:08:04;100051.53;;;3.79;100.00
69766;BME280;57039;48.014;21.384;2023-01-16T02:09:09;100050.06;;;3.72;100.00
69766;BME280;57039;48.014;21.384;2023-01-16T02:11:29;100048.25;;;3.74;100.00
69766;BME280;57039;48.014;21.384;2023-01-16T02:12:35;100051.94;;;3.67;100.00
69766;BME280;57039;48.014;21.384;2023-01-16T02:13:38;100055.13;;;3.75;100.00
69766;BME280;57039;48.014;21.384;2023-01-16T02:14:43;100052.47;;;3.77;100.00
69766;BME280;57039;48.014;21.384;2023-01-16T02:15:47;100045.59;;;3.76;100.00
69766;BME280;57039;48.014;21.384;2023-01-16T02:17:15;100053.16;;;3.82;100.00
69766;BME280;57039;48.014;21.384;2023-01-16T02:18:37;100054.88;;;3.83;100.00
69766;BME280;57039;48.014;21.384;2023-01-16T02:20:21;100056.41;;;3.88;100.00
69766;BME280;57039;48.014;21.384;2023-01-16T02:24:21;100036.44;;;3.91;100.00
69766;BME280;57039;48.014;21.384;2023-01-16T02:27:00;100035.94;;;3.81;100.00
69766;BME280;57039;48.014;21.384;2023-01-16T02:30:07;100037.56;;;3.83;100.00
69766;BME280;57039;48.014;21.384;2023-01-16T02:31:53;100039.09;;;3.89;100.00
69766;BME280;57039;48.014;21.384;2023-01-16T02:34:37;100038.13;;;3.92;100.00
69766;BME280;57039;48.014;21.384;2023-01-16T02:36:00;100035.84;;;3.82;100.00
69766;BME280;57039;48.014;21.384;2023-01-16T02:41:40;100021.06;;;3.86;100.00
69766;BME280;57039;48.014;21.384;2023-01-16T02:43:01;100028.97;;;3.81;100.00
69766;BME280;57039;48.014;21.384;2023-01-16T02:48:43;100035.62;;;3.88;100.00
69766;BME280;57039;48.014;21.384;2023-01-16T02:50:00;100043.41;;;3.88;100.00
69766;BME280;57039;48.014;21.384;2023-01-16T02:54:01;100024.38;;;3.89;100.00
69766;BME280;57039;48.014;21.384;2023-01-16T02:55:34;100024.50;;;3.86;100.00
69766;BME280;57039;48.014;21.384;2023-01-16T02:56:50;100022.84;;;3.84;100.00
69766;BME280;57039;48.014;21.384;2023-01-16T02:58:00;100019.22;;;3.88;100.00
69766;BME280;57039;48.014;21.384;2023-01-16T02:59:05;100022.03;;;3.82;100.00
69766;BME280;57039;48.014;21.384;2023-01-16T03:00:08;100021.88;;;3.86;100.00
69766;BME280;57039;48.014;21.384;2023-01-16T03:01:12;100016.81;;;3.83;100.00
69766;BME280;57039;48.014;21.384;2023-01-16T03:02:15;100015.06;;;3.84;100.00
69766;BME280;57039;48.014;21.384;2023-01-16T03:04:50;100014.22;;;3.83;100.00
69766;BME280;57039;48.014;21.384;2023-01-16T03:06:00;100002.94;;;3.84;100.00
69766;BME280;57039;48.014;21.384;2023-01-16T03:11:20;100001.12;;;3.86;100.00
69766;BME280;57039;48.014;21.384;2023-01-16T03:15:03;100006.75;;;3.98;100.00
69766;BME280;57039;48.014;21.384;2023-01-16T03:16:30;99999.75;;;4.01;100.00
69766;BME280;57039;48.014;21.384;2023-01-16T03:20:39;99998.81;;;4.02;100.00
69766;BME280;57039;48.014;21.384;2023-01-16T03:23:12;99991.94;;;4.01;100.00
69766;BME280;57039;48.014;21.384;2023-01-16T03:27:26;99998.97;;;3.98;100.00
69766;BME280;57039;48.014;21.384;2023-01-16T03:28:54;99999.19;;;3.92;100.00
69766;BME280;57039;48.014;21.384;2023-01-16T03:31:19;100008.50;;;3.97;100.00
69766;BME280;57039;48.014;21.384;2023-01-16T03:33:05;100000.81;;;3.96;100.00
69766;BME280;57039;48.014;21.384;2023-01-16T03:35:37;99994.66;;;3.98;100.00
69766;BME280;57039;48.014;21.384;2023-01-16T03:36:57;99995.38;;;4.02;100.00
69766;BME280;57039;48.014;21.384;2023-01-16T03:38:07;99985.87;;;4.01;100.00
69766;BME280;57039;48.014;21.384;2023-01-16T03:39:12;100000.50;;;4.03;100.00
69766;BME280;57039;48.014;21.384;2023-01-16T03:40:22;99999.75;;;4.01;100.00
69766;BME280;57039;48.014;21.384;2023-01-16T03:41:27;99998.12;;;3.97;100.00
69766;BME280;57039;48.014;21.384;2023-01-16T03:42:35;100005.03;;;3.98;100.00
69766;BME280;57039;48.014;21.384;2023-01-16T03:43:39;100000.13;;;3.91;100.00
69766;BME280;57039;48.014;21.384;2023-01-16T03:44:47;100000.69;;;3.99;100.00
69766;BME280;57039;48.014;21.384;2023-01-16T03:46:09;100003.28;;;3.99;100.00
69766;BME280;57039;48.014;21.384;2023-01-16T03:47:18;100000.69;;;3.99;100.00
69766;BME280;57039;48.014;21.384;2023-01-16T03:48:42;99995.28;;;4.05;100.00
69766;BME280;57039;48.014;21.384;2023-01-16T03:49:53;99984.78;;;4.08;100.00
69766;BME280;57039;48.014;21.384;2023-01-16T03:51:01;99981.16;;;4.12;100.00
69766;BME280;57039;48.014;21.384;2023-01-16T03:52:08;99981.56;;;4.01;100.00
69766;BME280;57039;48.014;21.384;2023-01-16T03:53:15;99975.47;;;4.02;100.00
69766;BME280;57039;48.014;21.384;2023-01-16T03:54:41;99979.09;;;3.98;100.00
69766;BME280;57039;48.014;21.384;2023-01-16T03:57:31;99978.50;;;3.90;100.00
69766;BME280;57039;48.014;21.384;2023-01-16T03:58:37;99976.66;;;3.94;100.00
69766;BME280;57039;48.014;21.384;2023-01-16T03:59:43;99981.62;;;4.00;100.00
69766;BME280;57039;48.014;21.384;2023-01-16T04:02:12;99972.06;;;4.00;100.00
69766;BME280;57039;48.014;21.384;2023-01-16T04:03:28;99968.28;;;4.09;100.00
69766;BME280;57039;48.014;21.384;2023-01-16T04:05:17;99967.41;;;4.10;100.00
69766;BME280;57039;48.014;21.384;2023-01-16T04:06:30;99968.25;;;4.10;100.00
69766;BME280;57039;48.014;21.384;2023-01-16T04:09:06;99955.91;;;4.16;100.00
69766;BME280;57039;48.014;21.384;2023-01-16T04:10:15;99960.16;;;4.18;100.00
69766;BME280;57039;48.014;21.384;2023-01-16T04:11:21;99945.50;;;4.17;100.00
69766;BME280;57039;48.014;21.384;2023-01-16T04:12:33;99952.31;;;4.20;100.00
69766;BME280;57039;48.014;21.384;2023-01-16T04:13:38;99947.97;;;4.20;100.00
69766;BME280;57039;48.014;21.384;2023-01-16T04:14:46;99950.56;;;4.20;100.00
69766;BME280;57039;48.014;21.384;2023-01-16T04:15:55;99950.47;;;4.23;100.00
69766;BME280;57039;48.014;21.384;2023-01-16T04:16:59;99957.31;;;4.24;100.00
69766;BME280;57039;48.014;21.384;2023-01-16T04:18:02;99947.84;;;4.23;100.00
69766;BME280;57039;48.014;21.384;2023-01-16T04:19:07;99954.84;;;4.21;100.00
69766;BME280;57039;48.014;21.384;2023-01-16T04:20:11;99947.06;;;4.21;100.00
69766;BME280;57039;48.014;21.384;2023-01-16T04:21:13;99947.75;;;4.26;100.00
69766;BME280;57039;48.014;21.384;2023-01-16T04:22:24;99946.91;;;4.26;100.00
69766;BME280;57039;48.014;21.384;2023-01-16T04:23:27;99944.22;;;4.27;100.00
69766;BME280;57039;48.014;21.384;2023-01-16T04:24:30;99955.53;;;4.26;100.00
69766;BME280;57039;48.014;21.384;2023-01-16T04:25:32;99949.41;;;4.27;100.00
69766;BME280;57039;48.014;21.384;2023-01-16T04:26:36;99945.97;;;4.27;100.00
69766;BME280;57039;48.014;21.384;2023-01-16T04:27:39;99954.56;;;4.29;100.00
69766;BME280;57039;48.014;21.384;2023-01-16T04:28:41;99945.94;;;4.28;100.00
69766;BME280;57039;48.014;21.384;2023-01-16T04:29:44;99951.19;;;4.27;100.00
69766;BME280;57039;48.014;21.384;2023-01-16T04:30:48;99956.31;;;4.28;100.00
69766;BME280;57039;48.014;21.384;2023-01-16T04:31:50;99951.25;;;4.25;100.00
69766;BME280;57039;48.014;21.384;2023-01-16T04:32:53;99949.41;;;4.27;100.00
69766;BME280;57039;48.014;21.384;2023-01-16T04:33:56;99947.63;;;4.29;100.00
69766;BME280;57039;48.014;21.384;2023-01-16T04:34:59;99937.34;;;4.26;100.00
69766;BME280;57039;48.014;21.384;2023-01-16T04:36:02;99942.44;;;4.29;100.00
69766;BME280;57039;48.014;21.384;2023-01-16T04:37:06;99944.19;;;4.29;100.00
69766;BME280;57039;48.014;21.384;2023-01-16T04:38:09;99936.56;;;4.24;100.00
69766;BME280;57039;48.014;21.384;2023-01-16T04:39:11;99936.56;;;4.24;100.00
69766;BME280;57039;48.014;21.384;2023-01-16T04:40:15;99929.62;;;4.25;100.00
69766;BME280;57039;48.014;21.384;2023-01-16T04:41:17;99936.44;;;4.27;100.00
69766;BME280;57039;48.014;21.384;2023-01-16T04:42:38;99927.81;;;4.27;100.00
69766;BME280;57039;48.014;21.384;2023-01-16T04:43:41;99927.25;;;4.19;100.00
69766;BME280;57039;48.014;21.384;2023-01-16T04:44:44;99922.94;;;4.19;100.00
69766;BME280;57039;48.014;21.384;2023-01-16T04:45:47;99921.19;;;4.20;100.00
69766;BME280;57039;48.014;21.384;2023-01-16T04:46:50;99909.84;;;4.22;100.00
69766;BME280;57039;48.014;21.384;2023-01-16T04:47:53;99908.97;;;4.22;100.00
69766;BME280;57039;48.014;21.384;2023-01-16T04:48:57;99906.44;;;4.20;100.00
69766;BME280;57039;48.014;21.384;2023-01-16T04:50:00;99904.56;;;4.24;100.00
69766;BME280;57039;48.014;21.384;2023-01-16T04:51:03;99896.84;;;4.22;100.00
69766;BME280;57039;48.014;21.384;2023-01-16T04:52:06;99890.78;;;4.22;100.00
69766;BME280;57039;48.014;21.384;2023-01-16T04:53:09;99892.53;;;4.21;100.00
69766;BME280;57039;48.014;21.384;2023-01-16T04:54:16;99889.09;;;4.21;100.00
69766;BME280;57039;48.014;21.384;2023-01-16T04:55:19;99901.25;;;4.20;100.00
69766;BME280;57039;48.014;21.384;2023-01-16T04:56:23;99891.78;;;4.19;100.00
69766;BME280;57039;48.014;21.384;2023-01-16T04:57:26;99896.06;;;4.20;100.00
69766;BME280;57039;48.014;21.384;2023-01-16T04:58:29;99897.72;;;4.21;100.00
69766;BME280;57039;48.014;21.384;2023-01-16T04:59:32;99891.78;;;4.19;100.00
69766;BME280;57039;48.014;21.384;2023-01-16T05:00:35;99885.06;;;4.14;100.00
69766;BME280;57039;48.014;21.384;2023-01-16T05:01:42;99844.41;;;3.91;100.00
69766;BME280;57039;48.014;21.384;2023-01-16T05:02:46;99890.84;;;4.20;100.00
69766;BME280;57039;48.014;21.384;2023-01-16T05:03:49;99884.75;;;4.21;100.00
69766;BME280;57039;48.014;21.384;2023-01-16T05:04:51;99885.72;;;4.19;100.00
69766;BME280;57039;48.014;21.384;2023-01-16T05:05:54;99875.44;;;4.16;100.00
69766;BME280;57039;48.014;21.384;2023-01-16T05:06:57;99871.25;;;4.13;100.00
69766;BME280;57039;48.014;21.384;2023-01-16T05:08:00;99868.66;;;4.13;100.00
69766;BME280;57039;48.014;21.384;2023-01-16T05:09:19;99874.69;;;4.14;100.00
69766;BME280;57039;48.014;21.384;2023-01-16T05:10:21;99875.44;;;4.16;100.00
69766;BME280;57039;48.014;21.384;2023-01-16T05:11:24;99878.97;;;4.15;100.00
69766;BME280;57039;48.014;21.384;2023-01-16T05:12:27;99878.37;;;4.08;100.00
69766;BME280;57039;48.014;21.384;2023-01-16T05:13:30;99884.22;;;4.13;100.00
69766;BME280;57039;48.014;21.384;2023-01-16T05:14:33;99900.81;;;4.09;100.00
69766;BME280;57039;48.014;21.384;2023-01-16T05:15:36;99906.31;;;4.01;100.00
69766;BME280;57039;48.014;21.384;2023-01-16T05:16:39;99894.63;;;3.89;100.00
69766;BME280;57039;48.014;21.384;2023-01-16T05:17:45;99899.47;;;3.99;100.00
69766;BME280;57039;48.014;21.384;2023-01-16T05:18:48;99894.97;;;4.04;100.00
69766;BME280;57039;48.014;21.384;2023-01-16T05:19:51;99891.47;;;4.05;100.00
69766;BME280;57039;48.014;21.384;2023-01-16T05:20:54;99890.53;;;4.06;100.00
69766;BME280;57039;48.014;21.384;2023-01-16T05:21:59;99893.03;;;4.09;100.00
69766;BME280;57039;48.014;21.384;2023-01-16T05:23:02;99886.16;;;4.08;100.00
69766;BME280;57039;48.014;21.384;2023-01-16T05:24:05;99889.53;;;4.10;100.00
69766;BME280;57039;48.014;21.384;2023-01-16T05:25:08;99876.69;;;4.07;100.00
69766;BME280;57039;48.014;21.384;2023-01-16T05:26:10;99878.16;;;4.12;100.00
69766;BME280;57039;48.014;21.384;2023-01-16T05:27:13;99883.31;;;4.14;100.00
69766;BME280;57039;48.014;21.384;2023-01-16T05:28:16;99879.16;;;4.10;100.00
69766;BME280;57039;48.014;21.384;2023-01-16T05:29:20;99884.50;;;4.05;100.00
69766;BME280;57039;48.014;21.384;2023-01-16T05:30:22;99882.62;;;4.09;100.00
69766;BME280;57039;48.014;21.384;2023-01-16T05:31:25;99876.50;;;4.11;100.00
69766;BME280;57039;48.014;21.384;2023-01-16T05:32:28;99875.69;;;4.09;100.00
69766;BME280;57039;48.014;21.384;2023-01-16T05:33:35;99883.44;;;4.11;100.00
69766;BME280;57039;48.014;21.384;2023-01-16T05:34:37;99887.00;;;4.08;100.00
69766;BME280;57039;48.014;21.384;2023-01-16T05:35:40;99885.53;;;4.01;100.00
69766;BME280;57039;48.014;21.384;2023-01-16T05:36:43;99888.03;;;4.04;100.00
69766;BME280;57039;48.014;21.384;2023-01-16T05:37:46;99892.47;;;4.01;100.00
69766;BME280;57039;48.014;21.384;2023-01-16T05:38:49;99879.56;;;3.99;100.00
69766;BME280;57039;48.014;21.384;2023-01-16T05:39:53;99879.47;;;4.01;100.00
69766;BME280;57039;48.014;21.384;2023-01-16T05:40:59;99881.34;;;3.97;100.00
69766;BME280;57039;48.014;21.384;2023-01-16T05:42:02;99882.94;;;4.01;100.00
69766;BME280;57039;48.014;21.384;2023-01-16T05:43:05;99883.00;;;4.00;100.00
69766;BME280;57039;48.014;21.384;2023-01-16T05:44:08;99882.31;;;3.95;100.00
69766;BME280;57039;48.014;21.384;2023-01-16T05:45:11;99886.06;;;3.87;100.00
69766;BME280;57039;48.014;21.384;2023-01-16T05:46:13;99889.38;;;3.91;100.00
69766;BME280;57039;48.014;21.384;2023-01-16T05:47:16;99877.19;;;3.93;100.00
69766;BME280;57039;48.014;21.384;2023-01-16T05:48:19;99880.06;;;3.85;100.00
69766;BME280;57039;48.014;21.384;2023-01-16T05:49:23;99874.59;;;3.93;100.00
69766;BME280;57039;48.014;21.384;2023-01-16T05:50:26;99878.03;;;3.94;100.00
69766;BME280;57039;48.014;21.384;2023-01-16T05:51:29;99874.41;;;3.98;100.00
69766;BME280;57039;48.014;21.384;2023-01-16T05:52:32;99884.91;;;3.95;100.00
69766;BME280;57039;48.014;21.384;2023-01-16T05:53:34;99884.03;;;3.96;100.00
69766;BME280;57039;48.014;21.384;2023-01-16T05:54:38;99877.88;;;3.98;100.00
69766;BME280;57039;48.014;21.384;2023-01-16T05:55:45;99881.47;;;3.94;100.00
69766;BME280;57039;48.014;21.384;2023-01-16T05:56:48;99876.16;;;3.97;100.00
69766;BME280;57039;48.014;21.384;2023-01-16T05:57:51;99879.84;;;3.92;100.00
69766;BME280;57039;48.014;21.384;2023-01-16T05:58:54;99877.25;;;3.92;100.00
69766;BME280;57039;48.014;21.384;2023-01-16T05:59:58;99874.88;;;3.85;100.00
69766;BME280;57039;48.014;21.384;2023-01-16T06:01:00;99849.84;;;3.84;100.00
69766;BME280;57039;48.014;21.384;2023-01-16T06:02:03;99861.38;;;3.99;100.00
69766;BME280;57039;48.014;21.384;2023-01-16T06:03:07;99866.69;;;3.96;100.00
69766;BME280;57039;48.014;21.384;2023-01-16T06:04:10;99866.63;;;3.98;100.00
69766;BME280;57039;48.014;21.384;2023-01-16T06:05:13;99864.22;;;3.93;100.00
69766;BME280;57039;48.014;21.384;2023-01-16T06:06:16;99857.16;;;3.97;100.00
69766;BME280;57039;48.014;21.384;2023-01-16T06:07:20;99856.19;;;3.99;100.00
69766;BME280;57039;48.014;21.384;2023-01-16T06:08:22;99859.62;;;4.00;100.00
69766;BME280;57039;48.014;21.384;2023-01-16T06:09:25;99862.78;;;3.86;100.00
69766;BME280;57039;48.014;21.384;2023-01-16T06:10:28;99867.91;;;3.87;100.00
69766;BME280;57039;48.014;21.384;2023-01-16T06:11:31;99866.38;;;3.82;100.00
69766;BME280;57039;48.014;21.384;2023-01-16T06:12:34;99863.06;;;3.78;100.00
69766;BME280;57039;48.014;21.384;2023-01-16T06:13:36;99865.38;;;3.86;100.00
69766;BME280;57039;48.014;21.384;2023-01-16T06:14:39;99859.06;;;3.92;100.00
69766;BME280;57039;48.014;21.384;2023-01-16T06:15:42;99856.44;;;3.93;100.00
69766;BME280;57039;48.014;21.384;2023-01-16T06:16:45;99858.00;;;3.97;100.00
69766;BME280;57039;48.014;21.384;2023-01-16T06:17:48;99854.44;;;4.00;100.00
69766;BME280;57039;48.014;21.384;2023-01-16T06:18:53;99856.87;;;4.04;100.00
69766;BME280;57039;48.014;21.384;2023-01-16T06:19:56;99855.03;;;4.06;100.00
69766;BME280;57039;48.014;21.384;2023-01-16T06:20:59;99857.75;;;4.03;100.00
69766;BME280;57039;48.014;21.384;2023-01-16T06:22:02;99860.34;;;4.03;100.00
69766;BME280;57039;48.014;21.384;2023-01-16T06:23:05;99866.47;;;4.02;100.00
69766;BME280;57039;48.014;21.384;2023-01-16T06:24:08;99864.00;;;3.99;100.00
69766;BME280;57039;48.014;21.384;2023-01-16T06:25:11;99854.31;;;4.03;100.00
69766;BME280;57039;48.014;21.384;2023-01-16T06:26:14;99853.31;;;4.07;100.00
69766;BME280;57039;48.014;21.384;2023-01-16T06:27:17;99852.28;;;4.11;100.00
69766;BME280;57039;48.014;21.384;2023-01-16T06:28:20;99847.09;;;4.11;100.00